Dennis, Kansas
Current Conditions -  °F | °C
As of 10:39 AM on Friday 21 Nov 2014 (Local Time) from KPPF Reporting Station
Haze Haze  
Wind Chill: 42°   Ceiling: 1900
Heat Index: 45°   Visibility: 4mi
Dew Point: 44°   Wind: 6mph
Humidity: 97%   Direction: 110°ESE
Pressure: 30.16"   Gusts: NA
Location:  37.35°N, 95.41°W
Report Text: KPPF 211639Z AUTO 11005KT 4SM BR SCT013 BKN019 OVC024 07/07 A3016 RMK AO2 RAE30 P0000 T00720067
Loading
Personal Weather Stations






























Interactive Weather Map New forecast layout! Learn more

10-Day Weather Forecast

Advertisements
Track Severe Weather on mobile